CheckWX is a tool to help pilots better visualize weather data.  It is not intended as a substitute for an official pre-flight weather briefing.

13:15:14 UTC

KSKF METAR
Kelly Field Airport
San Antonio, Texas, USA
Current

19 mins ago

KSKF 201256Z 14003KT 10SM BKN012 26/24 A3003 RMK AO2A SLP160 T02640240 $
Observed
Aug-20 @ 12:56 UTC
Wind
  • 140° at 3 KTS
Visibility
10 SM
Flight Rules
MVFR
Cloud Levels
  • Broken at 1,200' AGL
Temperature
26°C / 79°F
Dewpoint
24°C / 75°F
Humidity
89%
Altimeter
30.03" Hg
Pressure
1016.92 hPa
Previous

1 hour ago

KSKF 201207Z 13004KT 10SM BKN012 26/24 A3001 RMK BKN V SCT SLP153 $
Observed
Aug-20 @ 12:07 UTC
Wind
  • 130° at 4 KTS
Visibility
10 SM
Flight Rules
MVFR
Cloud Levels
  • Broken at 1,200' AGL
Temperature
26°C / 79°F
Dewpoint
24°C / 75°F
Humidity
89%
Altimeter
30.01" Hg
Pressure
1016.22 hPa
Previous

1 hour ago

KSKF 201156Z 14003KT 10SM SCT012 26/24 A3001 RMK AO2A SLP153 T02610239 10280 20259 53005 $
Observed
Aug-20 @ 11:56 UTC
Wind
  • 140° at 3 KTS
Visibility
10 SM
Flight Rules
VFR
Cloud Levels
  • Scattered at 1,200' AGL
Temperature
26°C / 79°F
Dewpoint
24°C / 75°F
Humidity
89%
Altimeter
30.01" Hg
Pressure
1016.22 hPa